Terminal Aerodrome Forecast
Issued by NWS Glasgow, MT

Home | Current Version | Previous Version | Text Only | Print | Product List | Glossary On
Versions: 1 2 3 4 5 6 7 8 9 10 11 12 13
233
FTUS45 KGGW 221142
TAFGGW
TAF
KGGW 221142Z 2212/2312 11009KT P6SM OVC080 WS020/25030KT
     FM221400 21009KT P6SM VCSH OVC060 WS020/25035KT
     FM221700 23016KT P6SM VCSH OVC060
     FM221900 27028G40KT P6SM VCSH SCT070
     FM230300 28018G30KT P6SM SCT090=

USA.gov is the U.S. government's official web portal to all federal, state and local government web resources and services.